sensor_id;sensor_type;location;lat;lon;timestamp;temperature;humidity
78649;DHT22;67962;47.310;9.642;2023-04-25T00:01:24;11.00;71.80
78649;DHT22;67962;47.310;9.642;2023-04-25T00:03:50;11.10;71.50
78649;DHT22;67962;47.310;9.642;2023-04-25T00:06:16;11.00;71.40
78649;DHT22;67962;47.310;9.642;2023-04-25T00:08:43;11.10;71.60
78649;DHT22;67962;47.310;9.642;2023-04-25T00:11:09;11.00;71.60
78649;DHT22;67962;47.310;9.642;2023-04-25T00:13:34;11.00;71.80
78649;DHT22;67962;47.310;9.642;2023-04-25T00:16:00;10.90;71.80
78649;DHT22;67962;47.310;9.642;2023-04-25T00:18:27;10.90;71.80
78649;DHT22;67962;47.310;9.642;2023-04-25T00:20:54;10.90;71.90
78649;DHT22;67962;47.310;9.642;2023-04-25T00:23:21;10.80;72.10
78649;DHT22;67962;47.310;9.642;2023-04-25T00:25:50;10.80;72.40
78649;DHT22;67962;47.310;9.642;2023-04-25T00:28:16;10.90;71.80
78649;DHT22;67962;47.310;9.642;2023-04-25T00:30:42;10.90;71.50
78649;DHT22;67962;47.310;9.642;2023-04-25T00:33:09;10.80;72.30
78649;DHT22;67962;47.310;9.642;2023-04-25T00:35:35;10.90;71.30
78649;DHT22;67962;47.310;9.642;2023-04-25T00:38:01;10.90;71.10
78649;DHT22;67962;47.310;9.642;2023-04-25T00:40:26;11.00;71.40
78649;DHT22;67962;47.310;9.642;2023-04-25T00:42:53;10.90;71.70
78649;DHT22;67962;47.310;9.642;2023-04-25T00:45:19;10.80;70.60
78649;DHT22;67962;47.310;9.642;2023-04-25T00:47:45;10.80;70.60
78649;DHT22;67962;47.310;9.642;2023-04-25T00:50:12;10.80;70.90
78649;DHT22;67962;47.310;9.642;2023-04-25T00:52:39;10.90;71.20
78649;DHT22;67962;47.310;9.642;2023-04-25T00:55:06;10.90;71.20
78649;DHT22;67962;47.310;9.642;2023-04-25T00:57:32;10.80;71.00
78649;DHT22;67962;47.310;9.642;2023-04-25T00:59:59;10.80;70.70
78649;DHT22;67962;47.310;9.642;2023-04-25T01:02:25;10.80;71.10
78649;DHT22;67962;47.310;9.642;2023-04-25T01:04:52;10.80;71.60
78649;DHT22;67962;47.310;9.642;2023-04-25T01:07:18;10.80;71.80
78649;DHT22;67962;47.310;9.642;2023-04-25T01:09:44;10.90;71.30
78649;DHT22;67962;47.310;9.642;2023-04-25T01:12:09;10.90;70.60
78649;DHT22;67962;47.310;9.642;2023-04-25T01:14:35;10.80;70.90
78649;DHT22;67962;47.310;9.642;2023-04-25T01:17:01;10.80;71.60
78649;DHT22;67962;47.310;9.642;2023-04-25T01:19:27;10.80;71.30
78649;DHT22;67962;47.310;9.642;2023-04-25T01:21:53;10.80;71.20
78649;DHT22;67962;47.310;9.642;2023-04-25T01:24:19;10.80;71.40
78649;DHT22;67962;47.310;9.642;2023-04-25T01:26:44;10.80;71.60
78649;DHT22;67962;47.310;9.642;2023-04-25T01:29:19;10.80;71.80
78649;DHT22;67962;47.310;9.642;2023-04-25T01:31:45;10.80;71.70
78649;DHT22;67962;47.310;9.642;2023-04-25T01:34:11;10.90;71.00
78649;DHT22;67962;47.310;9.642;2023-04-25T01:36:37;10.90;70.70
78649;DHT22;67962;47.310;9.642;2023-04-25T01:39:03;10.80;71.50
78649;DHT22;67962;47.310;9.642;2023-04-25T01:41:29;10.70;71.70
78649;DHT22;67962;47.310;9.642;2023-04-25T01:43:55;10.50;71.60
78649;DHT22;67962;47.310;9.642;2023-04-25T01:46:21;10.50;70.80
78649;DHT22;67962;47.310;9.642;2023-04-25T01:48:47;10.50;71.20
78649;DHT22;67962;47.310;9.642;2023-04-25T01:51:13;10.60;71.20
78649;DHT22;67962;47.310;9.642;2023-04-25T01:53:39;10.70;70.40
78649;DHT22;67962;47.310;9.642;2023-04-25T01:56:05;10.60;70.90
78649;DHT22;67962;47.310;9.642;2023-04-25T01:58:31;10.50;71.30
78649;DHT22;67962;47.310;9.642;2023-04-25T02:00:57;10.50;71.90
78649;DHT22;67962;47.310;9.642;2023-04-25T02:03:23;10.60;71.60
78649;DHT22;67962;47.310;9.642;2023-04-25T02:05:48;10.60;71.30
78649;DHT22;67962;47.310;9.642;2023-04-25T02:08:15;10.60;71.50
78649;DHT22;67962;47.310;9.642;2023-04-25T02:10:41;10.50;71.50
78649;DHT22;67962;47.310;9.642;2023-04-25T02:13:07;10.60;71.10
78649;DHT22;67962;47.310;9.642;2023-04-25T02:15:32;10.60;71.20
78649;DHT22;67962;47.310;9.642;2023-04-25T02:17:58;10.60;71.40
78649;DHT22;67962;47.310;9.642;2023-04-25T02:20:25;10.50;71.70
78649;DHT22;67962;47.310;9.642;2023-04-25T02:22:51;10.50;72.00
78649;DHT22;67962;47.310;9.642;2023-04-25T02:25:19;10.60;71.80
78649;DHT22;67962;47.310;9.642;2023-04-25T02:27:46;10.60;71.80
78649;DHT22;67962;47.310;9.642;2023-04-25T02:30:12;10.60;72.00
78649;DHT22;67962;47.310;9.642;2023-04-25T02:32:39;10.50;71.30
78649;DHT22;67962;47.310;9.642;2023-04-25T02:35:05;10.50;71.70
78649;DHT22;67962;47.310;9.642;2023-04-25T02:37:33;10.60;71.60
78649;DHT22;67962;47.310;9.642;2023-04-25T02:40:00;10.60;70.80
78649;DHT22;67962;47.310;9.642;2023-04-25T02:42:26;10.60;70.80
78649;DHT22;67962;47.310;9.642;2023-04-25T02:44:52;10.70;70.80
78649;DHT22;67962;47.310;9.642;2023-04-25T02:47:18;10.70;71.00
78649;DHT22;67962;47.310;9.642;2023-04-25T02:49:43;10.60;71.10
78649;DHT22;67962;47.310;9.642;2023-04-25T02:52:10;10.50;71.10
78649;DHT22;67962;47.310;9.642;2023-04-25T02:54:36;10.50;71.30
78649;DHT22;67962;47.310;9.642;2023-04-25T02:57:02;10.50;70.90
78649;DHT22;67962;47.310;9.642;2023-04-25T02:59:28;10.50;70.80
78649;DHT22;67962;47.310;9.642;2023-04-25T03:01:53;10.60;70.50
78649;DHT22;67962;47.310;9.642;2023-04-25T03:04:19;10.70;69.30
78649;DHT22;67962;47.310;9.642;2023-04-25T03:06:46;10.50;69.30
78649;DHT22;67962;47.310;9.642;2023-04-25T03:09:12;10.50;70.10
78649;DHT22;67962;47.310;9.642;2023-04-25T03:11:39;10.40;70.10
78649;DHT22;67962;47.310;9.642;2023-04-25T03:14:04;10.30;70.60
78649;DHT22;67962;47.310;9.642;2023-04-25T03:16:30;10.20;71.20
78649;DHT22;67962;47.310;9.642;2023-04-25T03:18:56;10.20;71.30
78649;DHT22;67962;47.310;9.642;2023-04-25T03:21:22;10.20;71.30
78649;DHT22;67962;47.310;9.642;2023-04-25T03:23:48;10.20;71.70
78649;DHT22;67962;47.310;9.642;2023-04-25T03:26:14;10.10;71.40
78649;DHT22;67962;47.310;9.642;2023-04-25T03:28:40;10.10;71.60
78649;DHT22;67962;47.310;9.642;2023-04-25T03:31:05;10.20;71.90
78649;DHT22;67962;47.310;9.642;2023-04-25T03:33:31;10.20;71.90
78649;DHT22;67962;47.310;9.642;2023-04-25T03:35:57;10.30;71.60
78649;DHT22;67962;47.310;9.642;2023-04-25T03:38:23;10.20;71.60
78649;DHT22;67962;47.310;9.642;2023-04-25T03:40:49;10.30;71.90
78649;DHT22;67962;47.310;9.642;2023-04-25T03:43:16;10.20;71.90
78649;DHT22;67962;47.310;9.642;2023-04-25T03:45:42;10.30;72.00
78649;DHT22;67962;47.310;9.642;2023-04-25T03:48:08;10.20;71.90
78649;DHT22;67962;47.310;9.642;2023-04-25T03:50:34;10.20;71.60
78649;DHT22;67962;47.310;9.642;2023-04-25T03:52:59;10.20;71.30
78649;DHT22;67962;47.310;9.642;2023-04-25T03:55:25;10.20;71.50
78649;DHT22;67962;47.310;9.642;2023-04-25T03:57:51;10.20;72.40
78649;DHT22;67962;47.310;9.642;2023-04-25T04:00:16;10.30;71.40
78649;DHT22;67962;47.310;9.642;2023-04-25T04:02:42;10.40;71.10
78649;DHT22;67962;47.310;9.642;2023-04-25T04:05:08;10.40;71.20
78649;DHT22;67962;47.310;9.642;2023-04-25T04:07:35;10.30;71.20
78649;DHT22;67962;47.310;9.642;2023-04-25T04:10:06;10.20;71.50
78649;DHT22;67962;47.310;9.642;2023-04-25T04:12:32;10.30;71.80
78649;DHT22;67962;47.310;9.642;2023-04-25T04:14:57;10.20;71.70
78649;DHT22;67962;47.310;9.642;2023-04-25T04:17:23;10.30;71.70
78649;DHT22;67962;47.310;9.642;2023-04-25T04:19:49;10.20;71.80
78649;DHT22;67962;47.310;9.642;2023-04-25T04:22:15;10.30;71.80
78649;DHT22;67962;47.310;9.642;2023-04-25T04:24:41;10.20;71.80
78649;DHT22;67962;47.310;9.642;2023-04-25T04:27:09;10.20;71.90
78649;DHT22;67962;47.310;9.642;2023-04-25T04:29:35;10.10;71.80
78649;DHT22;67962;47.310;9.642;2023-04-25T04:32:02;10.10;72.10
78649;DHT22;67962;47.310;9.642;2023-04-25T04:34:28;10.00;72.20
78649;DHT22;67962;47.310;9.642;2023-04-25T04:36:54;10.10;72.10
78649;DHT22;67962;47.310;9.642;2023-04-25T04:39:20;10.20;71.80
78649;DHT22;67962;47.310;9.642;2023-04-25T04:41:46;10.30;71.60
78649;DHT22;67962;47.310;9.642;2023-04-25T04:44:12;10.30;71.10
78649;DHT22;67962;47.310;9.642;2023-04-25T04:46:39;10.30;71.30
78649;DHT22;67962;47.310;9.642;2023-04-25T04:49:06;10.30;71.60
78649;DHT22;67962;47.310;9.642;2023-04-25T04:51:32;10.20;71.30
78649;DHT22;67962;47.310;9.642;2023-04-25T04:53:58;10.20;71.40
78649;DHT22;67962;47.310;9.642;2023-04-25T04:56:30;10.20;71.60
78649;DHT22;67962;47.310;9.642;2023-04-25T04:58:57;10.20;71.00
78649;DHT22;67962;47.310;9.642;2023-04-25T05:01:23;10.20;70.80
78649;DHT22;67962;47.310;9.642;2023-04-25T05:03:49;10.20;70.70
78649;DHT22;67962;47.310;9.642;2023-04-25T05:06:16;10.30;70.70
78649;DHT22;67962;47.310;9.642;2023-04-25T05:08:42;10.20;71.00
78649;DHT22;67962;47.310;9.642;2023-04-25T05:11:08;10.30;71.00
78649;DHT22;67962;47.310;9.642;2023-04-25T05:13:33;10.40;70.90
78649;DHT22;67962;47.310;9.642;2023-04-25T05:15:59;10.40;70.40
78649;DHT22;67962;47.310;9.642;2023-04-25T05:18:25;10.50;69.70
78649;DHT22;67962;47.310;9.642;2023-04-25T05:20:51;10.50;69.90
78649;DHT22;67962;47.310;9.642;2023-04-25T05:23:17;10.40;70.40
78649;DHT22;67962;47.310;9.642;2023-04-25T05:25:42;10.50;70.20
78649;DHT22;67962;47.310;9.642;2023-04-25T05:28:08;10.40;69.50
78649;DHT22;67962;47.310;9.642;2023-04-25T05:30:34;10.50;70.00
78649;DHT22;67962;47.310;9.642;2023-04-25T05:33:00;10.50;69.90
78649;DHT22;67962;47.310;9.642;2023-04-25T05:35:26;10.60;69.80
78649;DHT22;67962;47.310;9.642;2023-04-25T05:37:51;10.70;69.60
78649;DHT22;67962;47.310;9.642;2023-04-25T05:40:17;10.80;69.70
78649;DHT22;67962;47.310;9.642;2023-04-25T05:42:43;10.80;70.30
78649;DHT22;67962;47.310;9.642;2023-04-25T05:45:09;10.80;70.50
78649;DHT22;67962;47.310;9.642;2023-04-25T05:47:35;10.80;70.90
78649;DHT22;67962;47.310;9.642;2023-04-25T05:50:00;10.90;70.90
78649;DHT22;67962;47.310;9.642;2023-04-25T05:52:26;10.90;70.90
78649;DHT22;67962;47.310;9.642;2023-04-25T05:54:52;10.90;70.60
78649;DHT22;67962;47.310;9.642;2023-04-25T05:57:22;11.10;70.30
78649;DHT22;67962;47.310;9.642;2023-04-25T05:59:48;11.20;68.80
78649;DHT22;67962;47.310;9.642;2023-04-25T06:02:14;11.30;68.00
78649;DHT22;67962;47.310;9.642;2023-04-25T06:04:40;11.50;67.80
78649;DHT22;67962;47.310;9.642;2023-04-25T06:07:05;11.70;67.10
78649;DHT22;67962;47.310;9.642;2023-04-25T06:09:31;11.70;66.90
78649;DHT22;67962;47.310;9.642;2023-04-25T06:11:57;11.80;67.10
78649;DHT22;67962;47.310;9.642;2023-04-25T06:14:22;11.90;67.60
78649;DHT22;67962;47.310;9.642;2023-04-25T06:16:48;11.90;67.10
78649;DHT22;67962;47.310;9.642;2023-04-25T06:19:14;12.00;67.10
78649;DHT22;67962;47.310;9.642;2023-04-25T06:21:39;12.00;66.70
78649;DHT22;67962;47.310;9.642;2023-04-25T06:24:05;12.10;68.00
78649;DHT22;67962;47.310;9.642;2023-04-25T06:26:31;12.40;66.70
78649;DHT22;67962;47.310;9.642;2023-04-25T06:28:56;12.50;65.20
78649;DHT22;67962;47.310;9.642;2023-04-25T06:31:22;12.50;63.20
78649;DHT22;67962;47.310;9.642;2023-04-25T06:33:48;12.50;63.70
78649;DHT22;67962;47.310;9.642;2023-04-25T06:36:14;12.50;63.30
78649;DHT22;67962;47.310;9.642;2023-04-25T06:38:39;12.60;62.90
78649;DHT22;67962;47.310;9.642;2023-04-25T06:41:05;12.70;60.90
78649;DHT22;67962;47.310;9.642;2023-04-25T06:43:31;12.80;60.30
78649;DHT22;67962;47.310;9.642;2023-04-25T06:45:59;12.90;60.80
78649;DHT22;67962;47.310;9.642;2023-04-25T06:48:26;13.10;60.00
78649;DHT22;67962;47.310;9.642;2023-04-25T06:50:52;13.10;60.70
78649;DHT22;67962;47.310;9.642;2023-04-25T06:53:18;13.20;60.80
78649;DHT22;67962;47.310;9.642;2023-04-25T06:55:44;13.30;59.90
78649;DHT22;67962;47.310;9.642;2023-04-25T06:58:09;13.40;60.30
78649;DHT22;67962;47.310;9.642;2023-04-25T07:00:35;13.40;60.30
78649;DHT22;67962;47.310;9.642;2023-04-25T07:03:01;13.60;60.30
78649;DHT22;67962;47.310;9.642;2023-04-25T07:05:27;13.80;60.80
78649;DHT22;67962;47.310;9.642;2023-04-25T07:07:53;14.20;59.30
78649;DHT22;67962;47.310;9.642;2023-04-25T07:10:19;14.60;59.20
78649;DHT22;67962;47.310;9.642;2023-04-25T07:12:44;14.90;57.70
78649;DHT22;67962;47.310;9.642;2023-04-25T07:15:10;15.30;57.00
78649;DHT22;67962;47.310;9.642;2023-04-25T07:17:37;15.40;56.00
78649;DHT22;67962;47.310;9.642;2023-04-25T07:20:04;15.50;54.80
78649;DHT22;67962;47.310;9.642;2023-04-25T07:22:29;15.40;56.40
78649;DHT22;67962;47.310;9.642;2023-04-25T07:24:55;15.40;53.50
78649;DHT22;67962;47.310;9.642;2023-04-25T07:27:21;15.30;53.00
78649;DHT22;67962;47.310;9.642;2023-04-25T07:29:46;15.20;52.70
78649;DHT22;67962;47.310;9.642;2023-04-25T07:32:12;15.00;53.10
78649;DHT22;67962;47.310;9.642;2023-04-25T07:34:39;14.90;52.80
78649;DHT22;67962;47.310;9.642;2023-04-25T07:37:05;14.70;53.80
78649;DHT22;67962;47.310;9.642;2023-04-25T07:39:31;14.50;54.70
78649;DHT22;67962;47.310;9.642;2023-04-25T07:41:57;14.30;55.40
78649;DHT22;67962;47.310;9.642;2023-04-25T07:44:24;14.10;55.40
78649;DHT22;67962;47.310;9.642;2023-04-25T07:46:51;13.90;56.00
78649;DHT22;67962;47.310;9.642;2023-04-25T07:49:16;13.80;58.00
78649;DHT22;67962;47.310;9.642;2023-04-25T07:51:42;13.70;56.60
78649;DHT22;67962;47.310;9.642;2023-04-25T07:54:14;13.60;57.40
78649;DHT22;67962;47.310;9.642;2023-04-25T07:56:40;13.50;58.10
78649;DHT22;67962;47.310;9.642;2023-04-25T07:59:05;13.40;57.90
78649;DHT22;67962;47.310;9.642;2023-04-25T08:01:31;13.40;58.30
78649;DHT22;67962;47.310;9.642;2023-04-25T08:03:57;13.30;57.40
78649;DHT22;67962;47.310;9.642;2023-04-25T08:06:22;13.20;57.30
78649;DHT22;67962;47.310;9.642;2023-04-25T08:08:48;13.00;58.40
78649;DHT22;67962;47.310;9.642;2023-04-25T08:11:14;13.00;59.60
78649;DHT22;67962;47.310;9.642;2023-04-25T08:13:39;13.00;59.80
78649;DHT22;67962;47.310;9.642;2023-04-25T08:16:05;12.90;60.70
78649;DHT22;67962;47.310;9.642;2023-04-25T08:18:31;12.90;59.70
78649;DHT22;67962;47.310;9.642;2023-04-25T08:20:56;12.70;60.30
78649;DHT22;67962;47.310;9.642;2023-04-25T08:23:22;12.60;60.20
78649;DHT22;67962;47.310;9.642;2023-04-25T08:25:48;12.30;60.20
78649;DHT22;67962;47.310;9.642;2023-04-25T08:28:14;12.00;61.00
78649;DHT22;67962;47.310;9.642;2023-04-25T08:30:40;11.70;61.30
78649;DHT22;67962;47.310;9.642;2023-04-25T08:33:06;11.60;61.60
78649;DHT22;67962;47.310;9.642;2023-04-25T08:35:32;11.50;63.40
78649;DHT22;67962;47.310;9.642;2023-04-25T08:37:59;11.20;62.90
78649;DHT22;67962;47.310;9.642;2023-04-25T08:40:27;11.10;63.00
78649;DHT22;67962;47.310;9.642;2023-04-25T08:42:57;10.90;64.50
78649;DHT22;67962;47.310;9.642;2023-04-25T08:45:25;10.80;65.50
78649;DHT22;67962;47.310;9.642;2023-04-25T08:47:52;10.80;65.10
78649;DHT22;67962;47.310;9.642;2023-04-25T08:50:18;10.60;65.70
78649;DHT22;67962;47.310;9.642;2023-04-25T08:52:47;10.60;66.20
78649;DHT22;67962;47.310;9.642;2023-04-25T08:55:13;10.70;66.10
78649;DHT22;67962;47.310;9.642;2023-04-25T08:57:42;10.70;66.40
78649;DHT22;67962;47.310;9.642;2023-04-25T09:00:12;10.70;66.30
78649;DHT22;67962;47.310;9.642;2023-04-25T09:02:39;10.80;66.60
78649;DHT22;67962;47.310;9.642;2023-04-25T09:05:05;10.90;66.20
78649;DHT22;67962;47.310;9.642;2023-04-25T09:07:32;11.10;66.50
78649;DHT22;67962;47.310;9.642;2023-04-25T09:09:58;11.40;66.30
78649;DHT22;67962;47.310;9.642;2023-04-25T09:12:27;11.40;65.70
78649;DHT22;67962;47.310;9.642;2023-04-25T09:15:10;11.50;64.00
78649;DHT22;67962;47.310;9.642;2023-04-25T09:17:36;11.60;63.00
78649;DHT22;67962;47.310;9.642;2023-04-25T09:20:14;11.50;61.60
78649;DHT22;67962;47.310;9.642;2023-04-25T09:22:40;11.40;64.10
78649;DHT22;67962;47.310;9.642;2023-04-25T09:25:11;11.30;65.10
78649;DHT22;67962;47.310;9.642;2023-04-25T09:27:49;11.20;65.40
78649;DHT22;67962;47.310;9.642;2023-04-25T09:30:16;11.10;65.40
78649;DHT22;67962;47.310;9.642;2023-04-25T09:32:43;11.20;64.90
78649;DHT22;67962;47.310;9.642;2023-04-25T09:35:09;11.20;64.70
78649;DHT22;67962;47.310;9.642;2023-04-25T09:37:35;11.20;63.90
78649;DHT22;67962;47.310;9.642;2023-04-25T09:40:05;11.20;63.00
78649;DHT22;67962;47.310;9.642;2023-04-25T09:42:32;11.20;63.30
78649;DHT22;67962;47.310;9.642;2023-04-25T09:45:00;11.30;63.70
78649;DHT22;67962;47.310;9.642;2023-04-25T09:47:29;11.50;64.00
78649;DHT22;67962;47.310;9.642;2023-04-25T09:49:55;11.80;63.80
78649;DHT22;67962;47.310;9.642;2023-04-25T09:52:22;12.10;62.20
78649;DHT22;67962;47.310;9.642;2023-04-25T09:54:49;12.30;62.40
78649;DHT22;67962;47.310;9.642;2023-04-25T09:57:16;12.30;62.60
78649;DHT22;67962;47.310;9.642;2023-04-25T09:59:53;12.40;62.60
78649;DHT22;67962;47.310;9.642;2023-04-25T10:02:25;12.60;63.30
78649;DHT22;67962;47.310;9.642;2023-04-25T10:04:52;12.70;62.50
78649;DHT22;67962;47.310;9.642;2023-04-25T10:07:22;12.80;59.50
78649;DHT22;67962;47.310;9.642;2023-04-25T10:09:58;12.80;59.90
78649;DHT22;67962;47.310;9.642;2023-04-25T10:12:29;12.80;60.60
78649;DHT22;67962;47.310;9.642;2023-04-25T10:14:58;12.90;60.00
78649;DHT22;67962;47.310;9.642;2023-04-25T10:17:24;12.90;58.70
78649;DHT22;67962;47.310;9.642;2023-04-25T10:19:52;12.90;57.20
78649;DHT22;67962;47.310;9.642;2023-04-25T10:22:41;12.80;57.50
78649;DHT22;67962;47.310;9.642;2023-04-25T10:25:07;12.90;58.30
78649;DHT22;67962;47.310;9.642;2023-04-25T10:27:34;13.00;58.10
78649;DHT22;67962;47.310;9.642;2023-04-25T10:30:09;13.10;55.10
78649;DHT22;67962;47.310;9.642;2023-04-25T10:32:39;13.20;56.30
78649;DHT22;67962;47.310;9.642;2023-04-25T10:35:29;13.30;55.10
78649;DHT22;67962;47.310;9.642;2023-04-25T10:38:13;13.40;55.20
78649;DHT22;67962;47.310;9.642;2023-04-25T10:40:40;13.50;55.20
78649;DHT22;67962;47.310;9.642;2023-04-25T10:45:56;13.90;55.40
78649;DHT22;67962;47.310;9.642;2023-04-25T10:48:25;14.10;55.90
78649;DHT22;67962;47.310;9.642;2023-04-25T10:51:07;14.50;56.70
78649;DHT22;67962;47.310;9.642;2023-04-25T10:53:33;15.10;55.20
78649;DHT22;67962;47.310;9.642;2023-04-25T10:55:59;15.30;54.50
78649;DHT22;67962;47.310;9.642;2023-04-25T10:58:26;15.60;53.90
78649;DHT22;67962;47.310;9.642;2023-04-25T11:00:52;15.80;51.90
78649;DHT22;67962;47.310;9.642;2023-04-25T11:03:21;16.00;51.50
78649;DHT22;67962;47.310;9.642;2023-04-25T11:05:48;16.20;49.50
78649;DHT22;67962;47.310;9.642;2023-04-25T11:08:22;16.30;56.50
78649;DHT22;67962;47.310;9.642;2023-04-25T11:10:52;16.80;53.10
78649;DHT22;67962;47.310;9.642;2023-04-25T11:13:20;16.70;49.80
78649;DHT22;67962;47.310;9.642;2023-04-25T11:15:51;16.30;48.90
78649;DHT22;67962;47.310;9.642;2023-04-25T11:18:17;15.70;49.30
78649;DHT22;67962;47.310;9.642;2023-04-25T11:20:43;15.30;50.80
78649;DHT22;67962;47.310;9.642;2023-04-25T11:23:09;15.00;51.40
78649;DHT22;67962;47.310;9.642;2023-04-25T11:25:35;14.70;52.50
78649;DHT22;67962;47.310;9.642;2023-04-25T11:28:01;14.40;53.10
78649;DHT22;67962;47.310;9.642;2023-04-25T11:30:28;14.20;51.80
78649;DHT22;67962;47.310;9.642;2023-04-25T11:32:56;14.20;59.10
78649;DHT22;67962;47.310;9.642;2023-04-25T11:35:22;14.60;57.70
78649;DHT22;67962;47.310;9.642;2023-04-25T11:37:48;14.60;54.30
78649;DHT22;67962;47.310;9.642;2023-04-25T11:40:15;14.30;52.90
78649;DHT22;67962;47.310;9.642;2023-04-25T11:42:45;14.00;55.10
78649;DHT22;67962;47.310;9.642;2023-04-25T11:45:11;13.80;59.50
78649;DHT22;67962;47.310;9.642;2023-04-25T11:47:38;13.40;58.90
78649;DHT22;67962;47.310;9.642;2023-04-25T11:50:05;13.20;60.30
78649;DHT22;67962;47.310;9.642;2023-04-25T11:52:49;13.20;63.10
78649;DHT22;67962;47.310;9.642;2023-04-25T11:55:20;13.10;64.40
78649;DHT22;67962;47.310;9.642;2023-04-25T11:57:48;13.20;63.30
78649;DHT22;67962;47.310;9.642;2023-04-25T12:02:43;13.30;62.00
78649;DHT22;67962;47.310;9.642;2023-04-25T12:05:11;13.40;62.20
78649;DHT22;67962;47.310;9.642;2023-04-25T12:07:37;13.40;62.50
78649;DHT22;67962;47.310;9.642;2023-04-25T12:10:11;13.40;63.30
78649;DHT22;67962;47.310;9.642;2023-04-25T12:12:38;13.60;61.40
78649;DHT22;67962;47.310;9.642;2023-04-25T12:15:24;13.60;60.70
78649;DHT22;67962;47.310;9.642;2023-04-25T12:17:52;13.80;59.90
78649;DHT22;67962;47.310;9.642;2023-04-25T12:20:20;14.30;59.40
78649;DHT22;67962;47.310;9.642;2023-04-25T12:22:47;14.60;56.80
78649;DHT22;67962;47.310;9.642;2023-04-25T12:25:38;14.70;56.20
78649;DHT22;67962;47.310;9.642;2023-04-25T12:28:11;14.90;55.30
78649;DHT22;67962;47.310;9.642;2023-04-25T12:30:53;15.20;54.60
78649;DHT22;67962;47.310;9.642;2023-04-25T12:33:18;15.40;51.80
78649;DHT22;67962;47.310;9.642;2023-04-25T12:35:44;15.30;52.00
78649;DHT22;67962;47.310;9.642;2023-04-25T12:38:10;15.10;53.30
78649;DHT22;67962;47.310;9.642;2023-04-25T12:40:36;15.00;50.20
78649;DHT22;67962;47.310;9.642;2023-04-25T12:43:01;14.50;51.80
78649;DHT22;67962;47.310;9.642;2023-04-25T12:45:27;14.20;53.20
78649;DHT22;67962;47.310;9.642;2023-04-25T12:47:53;14.10;54.50
78649;DHT22;67962;47.310;9.642;2023-04-25T12:50:18;14.00;54.50
78649;DHT22;67962;47.310;9.642;2023-04-25T12:52:44;14.00;56.20
78649;DHT22;67962;47.310;9.642;2023-04-25T12:55:10;14.10;56.40
78649;DHT22;67962;47.310;9.642;2023-04-25T12:57:35;14.30;57.40
78649;DHT22;67962;47.310;9.642;2023-04-25T13:00:01;14.50;55.90
78649;DHT22;67962;47.310;9.642;2023-04-25T13:02:27;14.70;53.10
78649;DHT22;67962;47.310;9.642;2023-04-25T13:04:52;14.70;53.50
78649;DHT22;67962;47.310;9.642;2023-04-25T13:07:18;14.70;54.00
78649;DHT22;67962;47.310;9.642;2023-04-25T13:09:44;14.70;53.10
78649;DHT22;67962;47.310;9.642;2023-04-25T13:12:09;14.80;54.60
78649;DHT22;67962;47.310;9.642;2023-04-25T13:14:35;15.10;54.10
78649;DHT22;67962;47.310;9.642;2023-04-25T13:17:01;15.50;53.50
78649;DHT22;67962;47.310;9.642;2023-04-25T13:19:26;15.80;51.40
78649;DHT22;67962;47.310;9.642;2023-04-25T13:21:52;15.90;50.90
78649;DHT22;67962;47.310;9.642;2023-04-25T13:24:18;15.90;50.50
78649;DHT22;67962;47.310;9.642;2023-04-25T13:26:43;16.00;48.10
78649;DHT22;67962;47.310;9.642;2023-04-25T13:29:09;15.90;49.00
78649;DHT22;67962;47.310;9.642;2023-04-25T13:31:35;16.10;50.90
78649;DHT22;67962;47.310;9.642;2023-04-25T13:34:00;16.40;50.10
78649;DHT22;67962;47.310;9.642;2023-04-25T13:36:26;16.50;47.90
78649;DHT22;67962;47.310;9.642;2023-04-25T13:38:53;16.40;46.10
78649;DHT22;67962;47.310;9.642;2023-04-25T13:41:21;15.80;42.50
78649;DHT22;67962;47.310;9.642;2023-04-25T13:43:47;15.10;46.10
78649;DHT22;67962;47.310;9.642;2023-04-25T13:46:13;14.40;49.30
78649;DHT22;67962;47.310;9.642;2023-04-25T13:48:40;14.00;48.70
78649;DHT22;67962;47.310;9.642;2023-04-25T13:51:12;13.40;53.50
78649;DHT22;67962;47.310;9.642;2023-04-25T13:53:37;13.10;54.00
78649;DHT22;67962;47.310;9.642;2023-04-25T13:56:04;12.70;53.70
78649;DHT22;67962;47.310;9.642;2023-04-25T13:58:30;12.60;53.10
78649;DHT22;67962;47.310;9.642;2023-04-25T14:00:56;12.20;55.00
78649;DHT22;67962;47.310;9.642;2023-04-25T14:03:21;11.90;56.00
78649;DHT22;67962;47.310;9.642;2023-04-25T14:05:47;11.70;55.80
78649;DHT22;67962;47.310;9.642;2023-04-25T14:08:14;11.50;56.00
78649;DHT22;67962;47.310;9.642;2023-04-25T14:10:40;11.20;57.90
78649;DHT22;67962;47.310;9.642;2023-04-25T14:13:06;11.10;59.40
78649;DHT22;67962;47.310;9.642;2023-04-25T14:15:32;11.20;59.90
78649;DHT22;67962;47.310;9.642;2023-04-25T14:17:59;11.40;60.60
78649;DHT22;67962;47.310;9.642;2023-04-25T14:20:25;11.40;60.10
78649;DHT22;67962;47.310;9.642;2023-04-25T14:22:52;11.40;58.40
78649;DHT22;67962;47.310;9.642;2023-04-25T14:25:19;11.40;58.90
78649;DHT22;67962;47.310;9.642;2023-04-25T14:27:45;11.40;59.20
78649;DHT22;67962;47.310;9.642;2023-04-25T14:30:15;11.30;59.40
78649;DHT22;67962;47.310;9.642;2023-04-25T14:32:41;11.30;59.90
78649;DHT22;67962;47.310;9.642;2023-04-25T14:35:07;11.50;58.00
78649;DHT22;67962;47.310;9.642;2023-04-25T14:37:33;11.50;58.00
78649;DHT22;67962;47.310;9.642;2023-04-25T14:39:58;11.60;57.20
78649;DHT22;67962;47.310;9.642;2023-04-25T14:42:24;11.50;56.60
78649;DHT22;67962;47.310;9.642;2023-04-25T14:44:51;11.50;56.40
78649;DHT22;67962;47.310;9.642;2023-04-25T14:47:16;11.50;58.10
78649;DHT22;67962;47.310;9.642;2023-04-25T14:49:43;11.70;59.50
78649;DHT22;67962;47.310;9.642;2023-04-25T14:52:09;11.70;58.70
78649;DHT22;67962;47.310;9.642;2023-04-25T14:54:34;11.70;57.50
78649;DHT22;67962;47.310;9.642;2023-04-25T14:57:00;12.00;57.00
78649;DHT22;67962;47.310;9.642;2023-04-25T14:59:26;12.20;57.30
78649;DHT22;67962;47.310;9.642;2023-04-25T15:01:53;12.30;56.20
78649;DHT22;67962;47.310;9.642;2023-04-25T15:04:19;12.40;56.70
78649;DHT22;67962;47.310;9.642;2023-04-25T15:06:44;12.60;57.00
78649;DHT22;67962;47.310;9.642;2023-04-25T15:09:10;12.70;55.00
78649;DHT22;67962;47.310;9.642;2023-04-25T15:11:36;12.90;54.80
78649;DHT22;67962;47.310;9.642;2023-04-25T15:14:02;13.00;54.80
78649;DHT22;67962;47.310;9.642;2023-04-25T15:16:28;13.20;54.10
78649;DHT22;67962;47.310;9.642;2023-04-25T15:18:53;13.30;54.20
78649;DHT22;67962;47.310;9.642;2023-04-25T15:21:19;13.40;51.90
78649;DHT22;67962;47.310;9.642;2023-04-25T15:23:45;13.40;51.20
78649;DHT22;67962;47.310;9.642;2023-04-25T15:26:10;13.50;50.50
78649;DHT22;67962;47.310;9.642;2023-04-25T15:28:36;13.60;51.60
78649;DHT22;67962;47.310;9.642;2023-04-25T15:31:02;13.70;51.40
78649;DHT22;67962;47.310;9.642;2023-04-25T15:33:28;13.90;50.70